Time;durP1;ratioP1;P1;durP2;ratioP2;P2;SDS_P1;SDS_P2;PMS_P1;PMS_P2;Temp;Humidity;BMP_temperature;BMP_pressure;BME280_temperature;BME280_humidity;BME280_pressure;Samples;Min_cycle;Max_cycle;Signal;HPM_P1;HPM_P2
2022/05/16 00:03:07;;;;;;;4.90;2.90;;;;;;;8.48;55.99;100575.03;130644;1267;108798;-80
2022/05/16 00:06:12;;;;;;;5.60;3.90;;;;;;;8.44;55.93;100570.34;130439;1267;108802;-79
2022/05/16 00:09:18;;;;;;;5.40;3.60;;;;;;;8.42;56.19;100575.87;130425;1267;108742;-79
2022/05/16 00:12:23;;;;;;;5.50;3.70;;;;;;;8.37;56.14;100580.17;130384;1267;108805;-78
2022/05/16 00:15:29;;;;;;;6.50;3.80;;;;;;;8.34;56.20;100581.81;130377;1267;108749;-77
2022/05/16 00:18:35;;;;;;;4.80;3.40;;;;;;;8.31;56.38;100585.45;130339;1267;108780;-78
2022/05/16 00:21:40;;;;;;;4.70;3.20;;;;;;;8.26;56.30;100586.80;130315;1266;108672;-77
2022/05/16 00:24:46;;;;;;;5.30;3.20;;;;;;;8.24;56.50;100586.78;130304;1267;108694;-76
2022/05/16 00:27:52;;;;;;;6.60;3.60;;;;;;;8.24;56.47;100588.32;130352;1267;108816;-76
2022/05/16 00:30:57;;;;;;;5.60;3.30;;;;;;;8.27;56.58;100593.23;130364;1265;108777;-76
2022/05/16 00:34:03;;;;;;;6.70;3.90;;;;;;;8.32;56.32;100593.15;130428;1267;108692;-76
2022/05/16 00:37:08;;;;;;;5.40;3.30;;;;;;;8.33;56.55;100592.90;130424;1267;108699;-76
2022/05/16 00:40:16;;;;;;;5.30;3.30;;;;;;;8.32;56.41;100593.56;130474;1267;107522;-77
2022/05/16 00:43:41;;;;;;;6.00;3.90;;;;;;;8.29;56.58;100591.15;130542;1267;108761;-78
2022/05/16 00:46:48;;;;;;;5.00;3.60;;;;;;;8.25;56.76;100597.65;130412;1266;108776;-76
2022/05/16 00:49:55;;;;;;;6.70;3.90;;;;;;;8.20;56.70;100603.23;130358;1267;108780;-77
2022/05/16 00:53:01;;;;;;;5.10;3.50;;;;;;;8.14;56.73;100601.09;130381;1267;108773;-77
2022/05/16 00:56:08;;;;;;;6.20;3.80;;;;;;;8.10;56.80;100597.00;130371;1267;108838;-77
2022/05/16 00:59:16;;;;;;;5.60;3.80;;;;;;;8.02;56.88;100601.52;130391;1267;108942;-77
2022/05/16 01:05:45;;;;;;;6.00;3.80;;;;;;;7.94;56.82;100603.11;130374;1267;108875;-76
2022/05/16 01:08:51;;;;;;;4.90;3.40;;;;;;;7.86;57.22;100604.59;130390;1267;108768;-77
2022/05/16 01:11:57;;;;;;;5.60;3.70;;;;;;;7.81;57.06;100607.11;130422;1267;108919;-74
2022/05/16 01:15:04;;;;;;;5.40;4.00;;;;;;;7.77;57.05;100609.78;130510;1267;108775;-78
2022/05/16 01:18:13;;;;;;;5.50;3.90;;;;;;;7.70;57.29;100609.80;130398;1267;108667;-79
2022/05/16 01:21:32;;;;;;;5.90;4.00;;;;;;;7.67;57.19;100608.33;130361;1266;108748;-79
2022/05/16 01:24:39;;;;;;;6.00;4.10;;;;;;;7.60;57.45;100609.25;130619;1267;107711;-78
2022/05/16 01:27:49;;;;;;;5.90;3.90;;;;;;;7.55;57.53;100610.69;130506;1266;107605;-74
2022/05/16 01:30:56;;;;;;;6.00;4.30;;;;;;;7.53;57.74;100608.05;130509;1266;108946;-74
2022/05/16 01:34:02;;;;;;;6.30;4.00;;;;;;;7.50;57.41;100607.39;130401;1267;108485;-73
2022/05/16 01:37:08;;;;;;;5.10;3.70;;;;;;;7.42;57.33;100613.64;130446;1267;108944;-78
2022/05/16 01:40:14;;;;;;;7.40;4.20;;;;;;;7.39;57.40;100615.86;130433;1267;108779;-77
2022/05/16 01:43:22;;;;;;;5.10;3.40;;;;;;;7.36;57.66;100617.02;130511;1267;108737;-78
2022/05/16 01:46:31;;;;;;;5.90;4.20;;;;;;;7.33;57.80;100615.52;130391;1266;108827;-77
2022/05/16 01:49:37;;;;;;;6.10;4.10;;;;;;;7.30;57.69;100616.27;130383;1266;108957;-76
2022/05/16 01:52:42;;;;;;;6.90;4.10;;;;;;;7.25;57.62;100617.19;130460;1267;108703;-75
2022/05/16 01:55:47;;;;;;;6.90;4.40;;;;;;;7.20;57.76;100617.25;130497;1267;108754;-74
2022/05/16 01:58:53;;;;;;;5.50;4.40;;;;;;;7.14;58.03;100617.69;130374;1267;108881;-74
2022/05/16 02:01:58;;;;;;;5.90;4.00;;;;;;;7.12;57.72;100617.72;130406;1267;108711;-75
2022/05/16 02:05:05;;;;;;;5.30;3.80;;;;;;;7.09;57.81;100618.66;130412;1265;108722;-75
2022/05/16 02:08:12;;;;;;;5.80;3.90;;;;;;;7.03;57.90;100618.03;130354;1267;108668;-76
2022/05/16 02:11:17;;;;;;;6.50;4.20;;;;;;;7.02;57.96;100623.27;130561;1267;108679;-75
2022/05/16 02:14:23;;;;;;;5.20;4.00;;;;;;;6.99;57.88;100627.73;130358;1266;108880;-75
2022/05/16 02:17:30;;;;;;;6.00;4.00;;;;;;;6.96;58.09;100629.41;130390;1266;108578;-75
2022/05/16 02:20:36;;;;;;;6.30;4.30;;;;;;;6.94;58.07;100629.39;130435;1267;108672;-73
2022/05/16 02:27:05;;;;;;;6.40;4.00;;;;;;;6.86;58.26;100630.89;130517;1267;108832;-78
2022/05/16 02:30:14;;;;;;;6.30;4.60;;;;;;;6.83;58.11;100629.36;130483;1267;108666;-77
2022/05/16 02:33:20;;;;;;;7.40;4.50;;;;;;;6.80;58.13;100635.41;130376;1267;108876;-79
2022/05/16 02:36:26;;;;;;;5.30;4.10;;;;;;;6.79;58.24;100632.86;130380;1267;109044;-79
2022/05/16 02:39:32;;;;;;;8.10;4.60;;;;;;;6.78;58.27;100629.41;130403;1267;108676;-80
2022/05/16 02:42:37;;;;;;;7.10;4.50;;;;;;;6.77;58.36;100632.77;130380;1267;108833;-80
2022/05/16 02:45:43;;;;;;;8.60;4.70;;;;;;;6.76;58.42;100630.64;130422;1267;108679;-79
2022/05/16 02:48:48;;;;;;;6.20;4.50;;;;;;;6.75;58.45;100633.89;130627;1267;106981;-77
2022/05/16 02:51:54;;;;;;;6.40;4.60;;;;;;;6.75;58.61;100636.69;130630;1266;107527;-78
2022/05/16 02:55:01;;;;;;;6.90;4.40;;;;;;;6.76;58.43;100644.60;130463;1266;108669;-77
2022/05/16 02:58:09;;;;;;;7.00;4.50;;;;;;;6.76;58.53;100645.64;130476;1267;108814;-76
2022/05/16 03:01:15;;;;;;;6.50;4.60;;;;;;;6.74;58.48;100648.80;130478;1267;108784;-74
2022/05/16 03:04:20;;;;;;;6.20;4.40;;;;;;;6.76;58.68;100650.60;130498;1267;108762;-78
2022/05/16 03:07:26;;;;;;;6.80;4.50;;;;;;;6.76;58.55;100650.08;130492;1267;107658;-77
2022/05/16 03:10:32;;;;;;;8.10;5.20;;;;;;;6.78;58.76;100648.51;130546;1267;108587;-84
2022/05/16 03:13:38;;;;;;;7.10;4.60;;;;;;;6.83;58.82;100650.23;130524;1267;106066;-77
2022/05/16 03:16:43;;;;;;;10.30;4.90;;;;;;;6.87;58.91;100650.08;130434;1265;107044;-77
2022/05/16 03:19:49;;;;;;;6.80;4.50;;;;;;;6.90;58.93;100649.45;130354;1267;108706;-77
2022/05/16 03:22:55;;;;;;;6.60;4.50;;;;;;;6.98;58.90;100647.80;130392;1266;107199;-76
2022/05/16 03:26:01;;;;;;;7.20;4.90;;;;;;;7.08;58.77;100646.63;130355;1266;108683;-81
2022/05/16 03:29:07;;;;;;;7.50;4.70;;;;;;;7.22;58.79;100648.54;130359;1267;108624;-81
2022/05/16 03:32:12;;;;;;;8.10;4.50;;;;;;;7.35;58.90;100643.80;130525;1267;108732;-78
2022/05/16 03:35:19;;;;;;;6.60;4.50;;;;;;;7.47;58.85;100645.13;130350;1267;107651;-77
2022/05/16 03:41:49;;;;;;;6.70;5.00;;;;;;;7.68;59.19;100642.91;130509;1267;109014;-78
2022/05/16 03:44:54;;;;;;;7.60;4.60;;;;;;;7.76;58.69;100643.69;130497;1268;108804;-78
2022/05/16 03:48:00;;;;;;;8.60;4.70;;;;;;;7.81;58.90;100641.36;130210;1267;328168;-79
2022/05/16 03:51:07;;;;;;;6.20;4.10;;;;;;;7.84;59.11;100644.77;130374;1266;108800;-83
2022/05/16 03:54:13;;;;;;;5.30;4.10;;;;;;;7.87;59.09;100647.64;130403;1267;108861;-77
2022/05/16 03:57:21;;;;;;;6.90;4.40;;;;;;;7.93;58.74;100649.08;130441;1267;108655;-79
2022/05/16 04:00:27;;;;;;;9.50;4.60;;;;;;;7.99;59.37;100652.82;130399;1267;108680;-81
2022/05/16 04:03:33;;;;;;;6.50;4.20;;;;;;;8.03;59.12;100656.39;130332;1267;108687;-81
2022/05/16 04:06:38;;;;;;;12.70;7.10;;;;;;;8.07;59.13;100659.20;130597;1268;107493;-82
2022/05/16 04:09:44;;;;;;;9.10;5.20;;;;;;;8.12;59.30;100661.32;130493;1266;108665;-82
2022/05/16 04:12:50;;;;;;;10.80;6.10;;;;;;;8.18;59.41;100664.50;130420;1267;108743;-82
2022/05/16 04:15:56;;;;;;;9.10;5.30;;;;;;;8.26;59.16;100670.61;130529;1268;108700;-80
2022/05/16 04:19:01;;;;;;;11.70;6.90;;;;;;;8.32;59.28;100671.52;130469;1267;108773;-81
2022/05/16 04:22:08;;;;;;;11.50;6.80;;;;;;;8.40;59.37;100670.33;130480;1267;108538;-81
2022/05/16 04:25:18;;;;;;;10.70;6.50;;;;;;;8.51;59.36;100670.10;130584;1267;108677;-82
2022/05/16 04:28:23;;;;;;;9.70;7.00;;;;;;;8.63;59.60;100668.61;130543;1268;108806;-80
2022/05/16 04:31:29;;;;;;;15.30;9.70;;;;;;;8.78;59.48;100667.69;130551;1267;109136;-82
2022/05/16 04:34:35;;;;;;;12.70;9.10;;;;;;;8.96;59.67;100662.40;130524;1268;108828;-79
2022/05/16 04:37:40;;;;;;;12.70;8.30;;;;;;;9.20;59.84;100656.82;130480;1268;108517;-80
2022/05/16 04:44:09;;;;;;;19.40;12.90;;;;;;;9.91;59.85;100657.60;130359;1268;108807;-77
2022/05/16 04:47:14;;;;;;;13.20;9.40;;;;;;;10.27;59.83;100653.39;130273;1268;108898;-81
2022/05/16 04:50:23;;;;;;;12.10;7.50;;;;;;;10.64;60.05;100652.02;130375;1268;108842;-79
2022/05/16 04:53:29;;;;;;;7.60;6.00;;;;;;;10.99;59.94;100654.20;130310;1268;108696;-81
2022/05/16 04:56:36;;;;;;;9.10;5.80;;;;;;;11.32;60.12;100654.10;130471;1266;108676;-80
2022/05/16 04:59:42;;;;;;;7.00;5.10;;;;;;;11.59;60.15;100651.26;130433;1267;108908;-79
2022/05/16 05:02:48;;;;;;;7.50;4.40;;;;;;;11.78;60.07;100649.39;130312;1267;108747;-81
2022/05/16 05:05:54;;;;;;;6.10;4.10;;;;;;;11.91;60.04;100648.54;130506;1268;108670;-81
2022/05/16 05:08:59;;;;;;;8.70;4.60;;;;;;;11.99;60.37;100648.23;130579;1267;108747;-87
2022/05/16 05:15:29;;;;;;;6.00;3.60;;;;;;;12.33;59.99;100647.16;130489;1268;109072;-84
2022/05/16 05:18:34;;;;;;;5.90;3.90;;;;;;;12.52;59.94;100646.30;130578;1267;108596;-79
2022/05/16 05:21:40;;;;;;;6.00;3.60;;;;;;;12.67;59.33;100647.38;130371;1267;108787;-84
2022/05/16 05:24:45;;;;;;;5.60;4.00;;;;;;;12.86;59.52;100644.51;130613;1268;108722;-83
2022/05/16 05:27:51;;;;;;;6.20;3.60;;;;;;;13.01;59.51;100647.02;130446;1267;108661;-83
2022/05/16 05:30:57;;;;;;;4.90;3.40;;;;;;;13.13;59.28;100640.64;130500;1267;108935;-83
2022/05/16 05:34:02;;;;;;;5.30;3.40;;;;;;;13.25;58.42;100642.96;130512;1267;108680;-82
2022/05/16 05:37:08;;;;;;;5.80;3.00;;;;;;;13.27;58.54;100639.29;130610;1268;108747;-81
2022/05/16 05:40:15;;;;;;;4.90;2.60;;;;;;;13.41;58.30;100640.21;130658;1267;108224;-80
2022/05/16 05:43:21;;;;;;;5.50;2.30;;;;;;;13.49;57.15;100643.33;130636;1268;108837;-77
2022/05/16 05:46:27;;;;;;;3.20;1.60;;;;;;;13.54;57.65;100642.39;130506;1268;109462;-76
2022/05/16 05:49:32;;;;;;;4.50;2.20;;;;;;;13.68;57.44;100642.88;130475;1268;108858;-80
2022/05/16 05:52:39;;;;;;;3.40;1.50;;;;;;;13.75;56.86;100643.73;130413;1268;107748;-80
2022/05/16 05:55:47;;;;;;;5.00;1.50;;;;;;;13.86;56.86;100643.12;130473;1268;108630;-80
2022/05/16 05:58:52;;;;;;;4.90;1.50;;;;;;;13.95;56.16;100646.23;130578;1268;108953;-80
2022/05/16 06:01:58;;;;;;;2.00;1.20;;;;;;;13.96;55.57;100648.89;130464;1268;108648;-80
2022/05/16 06:05:03;;;;;;;2.40;1.20;;;;;;;13.96;55.73;100650.64;130569;1268;108927;-80
2022/05/16 06:08:09;;;;;;;3.30;1.00;;;;;;;14.00;55.41;100646.48;130690;1267;108759;-80
2022/05/16 06:11:15;;;;;;;3.80;1.20;;;;;;;13.99;55.04;100653.02;130587;1267;107677;-81
2022/05/16 06:14:20;;;;;;;3.30;1.60;;;;;;;13.97;55.16;100649.70;130648;1268;108670;-80
2022/05/16 06:17:26;;;;;;;3.60;1.40;;;;;;;14.03;55.65;100651.50;130702;1268;109291;-80
2022/05/16 06:20:33;;;;;;;2.10;1.20;;;;;;;14.10;55.10;100650.92;130721;1268;109632;-80
2022/05/16 06:23:38;;;;;;;2.20;1.20;;;;;;;14.17;55.15;100651.48;130640;1268;108583;-81
2022/05/16 06:26:43;;;;;;;2.00;1.00;;;;;;;14.24;54.84;100649.41;130665;1267;107667;-80
2022/05/16 06:29:49;;;;;;;2.80;1.30;;;;;;;14.29;54.79;100652.48;130651;1268;108961;-80
2022/05/16 06:32:54;;;;;;;3.60;1.30;;;;;;;14.34;54.69;100649.42;130631;1268;108905;-80
2022/05/16 06:36:02;;;;;;;5.90;1.50;;;;;;;14.39;54.23;100652.81;130727;1267;108305;-80
2022/05/16 06:39:07;;;;;;;2.50;1.20;;;;;;;14.40;53.25;100655.92;130729;1268;108706;-80
2022/05/16 06:42:13;;;;;;;1.80;1.40;;;;;;;14.37;53.48;100654.77;130406;1267;108383;-80
2022/05/16 06:45:18;;;;;;;2.40;1.20;;;;;;;14.36;53.74;100654.86;130523;1266;108665;-80
2022/05/16 06:48:24;;;;;;;2.70;1.30;;;;;;;14.44;53.42;100653.08;130564;1268;108727;-80
2022/05/16 06:51:30;;;;;;;2.20;1.20;;;;;;;14.48;53.44;100652.84;130579;1268;108646;-80
2022/05/16 06:54:35;;;;;;;1.70;1.30;;;;;;;14.58;53.15;100653.46;130515;1267;108847;-80
2022/05/16 06:57:41;;;;;;;2.70;1.30;;;;;;;14.65;53.27;100656.25;130609;1267;108706;-80
2022/05/16 07:00:47;;;;;;;4.20;1.40;;;;;;;14.76;53.15;100658.41;130412;1267;107644;-80
2022/05/16 07:03:52;;;;;;;1.00;0.90;;;;;;;14.84;51.99;100660.05;130329;1267;108863;-80
2022/05/16 07:06:58;;;;;;;1.80;1.20;;;;;;;14.82;49.62;100662.00;130437;1268;108632;-81
2022/05/16 07:10:04;;;;;;;1.50;0.90;;;;;;;14.81;50.43;100660.48;130543;1267;108195;-81
2022/05/16 07:13:10;;;;;;;2.50;1.00;;;;;;;14.86;50.96;100659.56;130538;1267;108733;-81
2022/05/16 07:16:15;;;;;;;2.80;0.80;;;;;;;14.95;51.25;100664.19;130533;1267;108761;-81
2022/05/16 07:19:21;;;;;;;1.70;0.90;;;;;;;15.02;50.50;100662.38;130507;1267;108760;-81
2022/05/16 07:22:26;;;;;;;2.70;1.00;;;;;;;15.06;51.59;100662.23;130636;1267;108858;-81
2022/05/16 07:27:56;;;;;;;1.40;0.90;;;;;;;15.16;50.85;100667.05;130487;1267;108768;-80
2022/05/16 07:28:58;;;;;;;1.30;0.80;;;;;;;15.27;51.03;100668.45;130496;1267;108898;-81
2022/05/16 07:32:03;;;;;;;1.70;1.00;;;;;;;15.39;50.74;100662.46;130604;1267;107567;-80
2022/05/16 07:35:12;;;;;;;1.00;0.80;;;;;;;15.50;49.92;100656.56;130494;1267;108643;-80
2022/05/16 07:38:17;;;;;;;3.40;1.20;;;;;;;15.54;49.60;100655.40;130403;1266;109130;-81
2022/05/16 07:41:23;;;;;;;1.90;1.00;;;;;;;15.54;48.52;100654.84;130461;1267;108741;-81
2022/05/16 07:44:29;;;;;;;2.60;1.00;;;;;;;15.60;50.00;100655.37;130536;1267;108627;-81
2022/05/16 07:47:35;;;;;;;1.20;0.80;;;;;;;15.70;49.90;100654.92;130572;1267;108565;-80
2022/05/16 07:50:41;;;;;;;1.60;0.70;;;;;;;15.79;49.41;100656.64;130523;1267;108981;-80
2022/05/16 07:53:47;;;;;;;1.70;0.80;;;;;;;15.86;50.01;100649.70;130814;1267;108687;-80
2022/05/16 07:56:52;;;;;;;1.90;1.00;;;;;;;15.96;47.83;100657.73;130558;1267;108915;-80
2022/05/16 07:59:57;;;;;;;2.50;0.90;;;;;;;15.87;46.20;100665.00;130581;1266;107627;-80
2022/05/16 08:03:04;;;;;;;2.00;1.00;;;;;;;15.82;47.55;100661.93;130608;1267;108638;-80
2022/05/16 08:06:09;;;;;;;1.30;0.80;;;;;;;15.86;46.99;100660.91;130609;1267;108625;-80
2022/05/16 08:12:39;;;;;;;2.30;1.10;;;;;;;16.03;47.62;100656.02;130544;1267;108747;-80
2022/05/16 08:15:45;;;;;;;2.60;1.00;;;;;;;16.17;48.15;100652.27;130660;1267;108816;-81
2022/05/16 08:18:51;;;;;;;2.30;1.10;;;;;;;16.28;47.45;100649.36;130624;1267;108801;-80
2022/05/16 08:21:56;;;;;;;2.90;1.10;;;;;;;16.37;48.39;100646.70;130701;1266;109060;-81
2022/05/16 08:25:02;;;;;;;2.60;1.00;;;;;;;16.48;47.82;100650.92;130728;1267;107708;-80
2022/05/16 08:28:08;;;;;;;1.70;0.90;;;;;;;16.55;47.08;100647.99;130647;1267;108674;-80
2022/05/16 08:31:14;;;;;;;2.10;1.00;;;;;;;16.52;45.74;100652.66;130582;1266;108782;-80
2022/05/16 08:34:19;;;;;;;2.60;1.10;;;;;;;16.44;44.70;100656.40;130616;1265;108910;-81
2022/05/16 08:40:56;;;;;;;4.20;1.00;;;;;;;16.52;45.97;100655.16;130696;1267;108619;-82
2022/05/16 08:44:11;;;;;;;1.50;0.80;;;;;;;16.54;45.05;100654.33;130611;1266;108940;-80
2022/05/16 08:47:26;;;;;;;3.60;1.00;;;;;;;16.57;45.63;100651.71;130702;1267;108932;-80
2022/05/16 08:50:41;;;;;;;1.20;0.80;;;;;;;16.68;46.27;100644.09;130670;1267;108901;-80
2022/05/16 08:53:51;;;;;;;2.00;0.90;;;;;;;16.79;46.09;100652.48;130666;1267;108726;-79
2022/05/16 08:57:00;;;;;;;1.70;0.90;;;;;;;16.85;45.80;100651.19;130651;1267;108760;-80
2022/05/16 09:00:11;;;;;;;0.90;0.70;;;;;;;16.90;45.09;100653.54;130577;1267;108809;-81
2022/05/16 09:03:23;;;;;;;1.70;1.00;;;;;;;16.94;45.35;100656.54;130503;1266;108821;-80
2022/05/16 09:06:33;;;;;;;3.20;0.80;;;;;;;16.94;43.23;100658.75;130716;1267;108822;-80
2022/05/16 09:09:44;;;;;;;2.70;0.70;;;;;;;16.91;43.19;100655.34;130664;1267;108979;-80
2022/05/16 09:13:02;;;;;;;2.80;1.10;;;;;;;16.92;43.78;100650.97;130565;1267;107869;-80
2022/05/16 09:16:18;;;;;;;1.50;0.70;;;;;;;16.94;42.41;100650.94;130673;1267;108690;-81
2022/05/16 09:19:43;;;;;;;1.30;0.60;;;;;;;16.99;43.81;100654.83;130564;1264;108619;-81
2022/05/16 09:22:55;;;;;;;1.50;0.70;;;;;;;17.07;43.53;100650.67;130391;1266;108760;-80
2022/05/16 09:26:09;;;;;;;1.80;0.70;;;;;;;17.06;41.48;100656.43;130541;1267;108667;-80
2022/05/16 09:29:26;;;;;;;1.10;0.60;;;;;;;17.02;42.80;100654.01;130538;1267;108724;-81
2022/05/16 09:32:35;;;;;;;1.40;0.70;;;;;;;17.11;43.01;100654.80;130531;1267;108826;-80
2022/05/16 09:35:53;;;;;;;1.30;0.70;;;;;;;17.16;42.89;100653.08;130561;1267;108842;-80
2022/05/16 09:38:58;;;;;;;1.30;0.60;;;;;;;17.28;42.95;100657.63;130586;1267;108693;-80
2022/05/16 09:42:12;;;;;;;1.70;0.60;;;;;;;17.35;42.38;100660.27;130560;1267;108723;-80
2022/05/16 09:45:28;;;;;;;1.40;0.60;;;;;;;17.40;41.79;100661.16;130579;1266;108597;-81
2022/05/16 09:48:35;;;;;;;1.20;0.50;;;;;;;17.48;42.47;100661.92;130507;1267;108696;-81
2022/05/16 09:51:50;;;;;;;2.50;0.60;;;;;;;17.59;42.33;100661.48;130480;1267;108731;-81
2022/05/16 09:55:03;;;;;;;20.20;5.60;;;;;;;17.69;42.19;100662.93;130515;1267;108753;-81
2022/05/16 09:58:19;;;;;;;5.90;4.30;;;;;;;17.79;41.85;100658.34;130564;1267;107696;-81
2022/05/16 10:01:38;;;;;;;4.00;1.40;;;;;;;17.85;40.33;100659.73;130641;1267;108837;-80
2022/05/16 10:04:47;;;;;;;3.10;0.70;;;;;;;17.82;38.33;100659.08;130711;1266;108795;-81
2022/05/16 10:08:00;;;;;;;0.90;0.50;;;;;;;17.74;38.26;100650.32;130514;1267;108706;-81
2022/05/16 10:11:12;;;;;;;1.80;0.60;;;;;;;17.79;40.53;100645.67;130640;1267;108736;-81
2022/05/16 10:14:18;;;;;;;1.40;0.70;;;;;;;17.84;38.73;100652.10;130598;1267;108856;-81
2022/05/16 10:17:31;;;;;;;0.40;0.30;;;;;;;17.86;39.63;100650.84;130658;1267;108693;-81
2022/05/16 10:20:40;;;;;;;1.80;0.70;;;;;;;17.88;38.56;100649.84;130569;1267;108782;-81
2022/05/16 10:23:47;;;;;;;0.80;0.40;;;;;;;17.91;38.13;100640.35;130447;1267;108881;-81
2022/05/16 10:26:57;;;;;;;1.50;0.40;;;;;;;17.97;39.62;100635.76;130461;1267;108773;-82
2022/05/16 10:30:09;;;;;;;1.50;0.90;;;;;;;18.12;39.75;100631.51;130545;1267;109752;-81
2022/05/16 10:33:26;;;;;;;1.10;0.40;;;;;;;18.26;37.94;100632.16;130566;1266;108745;-81
2022/05/16 10:36:35;;;;;;;0.70;0.50;;;;;;;18.32;37.40;100625.14;130517;1267;108823;-81
2022/05/16 10:39:44;;;;;;;0.90;0.50;;;;;;;18.33;36.83;100627.48;130568;1266;108723;-80
2022/05/16 10:42:55;;;;;;;1.00;0.50;;;;;;;18.35;37.49;100630.02;130566;1266;107923;-81
2022/05/16 10:46:07;;;;;;;1.00;0.50;;;;;;;18.43;37.58;100630.52;130600;1266;108648;-80
2022/05/16 10:49:16;;;;;;;1.20;0.50;;;;;;;18.49;37.68;100624.66;130474;1267;108967;-80
2022/05/16 10:52:35;;;;;;;0.80;0.40;;;;;;;18.54;37.91;100625.00;130571;1266;107723;-81
2022/05/16 10:55:55;;;;;;;0.60;0.40;;;;;;;18.59;36.60;100618.02;130553;1267;108643;-81
2022/05/16 10:59:11;;;;;;;1.10;0.50;;;;;;;18.60;37.49;100611.99;130622;1267;108705;-81
2022/05/16 11:02:30;;;;;;;1.00;0.50;;;;;;;18.68;36.31;100614.38;130753;1267;108769;-81
2022/05/16 11:05:42;;;;;;;1.10;0.40;;;;;;;18.73;36.34;100612.98;130626;1267;108672;-81
2022/05/16 11:08:58;;;;;;;0.40;0.40;;;;;;;18.75;36.27;100605.31;130598;1267;108715;-81
2022/05/16 11:12:12;;;;;;;0.50;0.40;;;;;;;18.83;36.76;100596.90;130643;1265;108894;-81
2022/05/16 11:15:27;;;;;;;1.10;0.40;;;;;;;18.95;36.65;100587.70;130587;1267;108688;-79
2022/05/16 11:18:41;;;;;;;0.60;0.50;;;;;;;19.04;35.94;100587.95;130475;1267;108634;-81
2022/05/16 11:21:53;;;;;;;1.70;0.40;;;;;;;19.04;33.88;100589.33;130584;1267;107612;-81
2022/05/16 11:25:06;;;;;;;0.80;0.40;;;;;;;18.99;34.32;100591.75;130583;1267;108742;-81
2022/05/16 11:28:22;;;;;;;1.20;0.50;;;;;;;18.98;33.17;100593.70;130548;1267;108926;-81
2022/05/16 11:31:30;;;;;;;1.10;0.50;;;;;;;18.97;34.32;100586.66;130433;1266;108706;-81
2022/05/16 11:34:58;;;;;;;1.20;0.50;;;;;;;19.02;33.64;100585.98;130552;1267;108783;-81
2022/05/16 11:38:26;;;;;;;0.90;0.60;;;;;;;19.10;34.11;100583.48;130381;1266;108671;-81
2022/05/16 11:41:44;;;;;;;1.10;0.40;;;;;;;19.18;33.74;100582.97;130449;1267;108849;-81
2022/05/16 11:45:00;;;;;;;0.80;0.50;;;;;;;19.25;33.93;100576.23;130598;1266;108723;-81
2022/05/16 11:48:20;;;;;;;0.60;0.50;;;;;;;19.25;32.31;100573.14;130561;1267;109489;-81
2022/05/16 11:51:45;;;;;;;0.40;0.30;;;;;;;19.27;33.27;100572.48;130533;1267;108553;-81
2022/05/16 11:54:55;;;;;;;1.50;0.40;;;;;;;19.32;31.89;100574.30;130452;1267;108694;-81
2022/05/16 12:01:35;;;;;;;1.10;0.40;;;;;;;19.36;33.24;100569.69;130505;1267;108757;-79
2022/05/16 12:04:44;;;;;;;0.50;0.40;;;;;;;19.42;31.85;100567.09;130489;1267;108714;-79
2022/05/16 12:07:57;;;;;;;0.60;0.40;;;;;;;19.47;33.26;100564.64;130548;1266;107660;-79
2022/05/16 12:11:14;;;;;;;0.50;0.30;;;;;;;19.53;33.03;100558.52;130586;1266;108843;-81
2022/05/16 12:14:32;;;;;;;1.50;0.50;;;;;;;19.60;31.81;100551.30;130563;1267;108534;-81
2022/05/16 12:17:38;;;;;;;1.00;0.40;;;;;;;19.63;33.53;100547.18;130450;1266;108728;-79
2022/05/16 12:21:06;;;;;;;0.70;0.60;;;;;;;19.80;33.62;100547.66;130511;1267;108843;-79
2022/05/16 12:24:47;;;;;;;0.80;0.40;;;;;;;19.97;33.00;100545.09;130464;1267;108748;-79
2022/05/16 12:28:21;;;;;;;2.20;0.40;;;;;;;20.05;31.99;100545.88;130188;1267;108686;-80
2022/05/16 12:31:49;;;;;;;1.00;0.50;;;;;;;20.08;30.99;100543.27;130404;1267;108844;-79
2022/05/16 12:34:59;;;;;;;1.70;0.40;;;;;;;20.12;30.94;100541.29;130395;1267;106834;-79
2022/05/16 12:38:05;;;;;;;2.20;0.40;;;;;;;20.14;30.92;100539.79;130430;1267;108669;-79
2022/05/16 12:41:51;;;;;;;1.00;0.40;;;;;;;20.10;29.89;100538.01;130472;1267;107673;-79
2022/05/16 12:44:59;;;;;;;1.20;0.50;;;;;;;20.06;30.99;100542.30;130481;1267;108844;-80
2022/05/16 12:48:30;;;;;;;0.60;0.50;;;;;;;20.08;29.93;100538.09;130423;1267;109532;-80
2022/05/16 12:51:56;;;;;;;0.80;0.50;;;;;;;20.06;30.95;100542.67;130339;1267;108700;-80
2022/05/16 12:55:24;;;;;;;0.90;0.50;;;;;;;20.13;30.45;100539.13;130445;1266;108656;-80
2022/05/16 12:58:41;;;;;;;1.20;0.50;;;;;;;20.09;30.33;100543.21;130438;1267;108889;-80
2022/05/16 13:01:51;;;;;;;0.60;0.40;;;;;;;20.08;29.88;100540.46;130433;1267;108754;-80
2022/05/16 13:05:08;;;;;;;0.60;0.40;;;;;;;20.05;29.70;100539.26;130375;1267;108911;-80
2022/05/16 13:08:25;;;;;;;0.60;0.40;;;;;;;20.02;29.34;100540.42;130331;1267;108977;-80
2022/05/16 13:11:40;;;;;;;1.10;0.30;;;;;;;20.05;30.47;100536.52;130359;1267;108776;-80
2022/05/16 13:14:56;;;;;;;0.70;0.40;;;;;;;20.19;31.03;100531.25;130385;1266;108986;-80
2022/05/16 13:18:08;;;;;;;2.60;0.40;;;;;;;20.32;30.82;100530.20;130451;1266;107642;-80
2022/05/16 13:21:17;;;;;;;1.00;0.40;;;;;;;20.33;29.10;100527.56;130466;1267;108462;-80
2022/05/16 13:24:24;;;;;;;0.80;0.50;;;;;;;20.30;30.03;100527.98;130536;1267;108672;-80
2022/05/16 13:30:53;;;;;;;0.90;0.50;;;;;;;20.28;29.83;100517.52;130470;1266;108737;-80
2022/05/16 13:33:59;;;;;;;0.70;0.40;;;;;;;20.24;30.62;100518.15;130548;1266;108846;-80
2022/05/16 13:37:07;;;;;;;1.10;0.50;;;;;;;20.33;31.22;100517.27;130512;1267;109418;-81
2022/05/16 13:40:23;;;;;;;1.30;0.40;;;;;;;20.44;30.76;100524.34;130619;1267;108717;-79
2022/05/16 13:43:29;;;;;;;0.90;0.50;;;;;;;20.55;30.92;100519.73;130539;1267;108775;-80
2022/05/16 13:46:35;;;;;;;0.70;0.30;;;;;;;20.67;30.86;100515.31;130598;1267;108754;-80
2022/05/16 13:49:42;;;;;;;1.20;0.50;;;;;;;20.74;30.53;100511.98;130559;1267;108944;-80
2022/05/16 13:52:49;;;;;;;0.60;0.40;;;;;;;20.77;29.10;100510.34;130527;1267;108900;-81
2022/05/16 13:55:56;;;;;;;1.00;0.60;;;;;;;20.71;29.62;100505.15;130240;1267;108782;-80
2022/05/16 13:59:02;;;;;;;1.40;0.60;;;;;;;20.75;30.30;100499.09;130495;1266;107656;-80
2022/05/16 14:02:12;;;;;;;1.30;0.70;;;;;;;20.89;29.28;100496.33;130506;1266;108663;-81
2022/05/16 14:05:27;;;;;;;1.30;0.60;;;;;;;20.91;28.32;100493.39;130617;1267;108925;-80
2022/05/16 14:08:39;;;;;;;1.40;0.60;;;;;;;20.97;29.25;100491.11;130614;1266;108871;-78
2022/05/16 14:11:46;;;;;;;0.70;0.60;;;;;;;20.95;28.55;100488.48;130659;1267;108752;-77
2022/05/16 14:14:53;;;;;;;2.20;0.70;;;;;;;20.88;29.63;100489.33;130473;1267;107004;-77
2022/05/16 14:18:04;;;;;;;1.10;0.40;;;;;;;20.92;29.65;100485.33;130565;1266;109020;-73
2022/05/16 14:21:18;;;;;;;1.60;0.50;;;;;;;20.95;29.10;100484.98;130452;1267;108883;-79
2022/05/16 14:24:31;;;;;;;0.90;0.40;;;;;;;20.93;29.07;100485.75;130670;1267;108502;-77
2022/05/16 14:27:40;;;;;;;0.80;0.40;;;;;;;20.91;29.17;100487.96;130524;1266;108643;-78
2022/05/16 14:30:52;;;;;;;0.90;0.50;;;;;;;20.92;29.57;100486.20;130506;1267;108796;-78
2022/05/16 14:34:19;;;;;;;1.30;0.60;;;;;;;20.87;28.80;100486.23;130468;1267;108782;-79
2022/05/16 14:37:27;;;;;;;0.70;0.50;;;;;;;20.70;28.33;100481.88;130589;1265;108842;-78
2022/05/16 14:40:39;;;;;;;1.00;0.70;;;;;;;20.49;28.56;100481.33;130607;1267;108863;-77
2022/05/16 14:44:01;;;;;;;2.70;0.90;;;;;;;20.44;28.43;100473.76;130387;1267;108725;-78
2022/05/16 14:47:23;;;;;;;1.50;0.60;;;;;;;20.38;28.41;100479.48;130619;1267;107652;-78
2022/05/16 14:50:32;;;;;;;1.60;0.60;;;;;;;20.37;29.02;100472.06;130753;1266;108936;-80
2022/05/16 14:53:39;;;;;;;1.60;0.80;;;;;;;20.39;29.00;100473.73;130679;1267;108686;-78
2022/05/16 14:56:44;;;;;;;0.80;0.60;;;;;;;20.42;29.40;100466.98;130567;1266;107707;-78